sensor_id;sensor_type;location;lat;lon;timestamp;temperature;humidity
46732;DHT22;32477;51.474;5.696;2023-11-19T00:00:42;13.30;99.90
46732;DHT22;32477;51.474;5.696;2023-11-19T00:03:08;13.30;99.90
46732;DHT22;32477;51.474;5.696;2023-11-19T00:05:34;13.30;99.90
46732;DHT22;32477;51.474;5.696;2023-11-19T00:08:00;13.30;99.90
46732;DHT22;32477;51.474;5.696;2023-11-19T00:10:28;13.30;99.90
46732;DHT22;32477;51.474;5.696;2023-11-19T00:12:54;13.30;99.90
46732;DHT22;32477;51.474;5.696;2023-11-19T00:15:20;13.30;99.90
46732;DHT22;32477;51.474;5.696;2023-11-19T00:17:47;13.30;99.90
46732;DHT22;32477;51.474;5.696;2023-11-19T00:20:18;13.30;99.90
46732;DHT22;32477;51.474;5.696;2023-11-19T00:22:44;13.30;99.90
46732;DHT22;32477;51.474;5.696;2023-11-19T00:25:14;13.30;99.90
46732;DHT22;32477;51.474;5.696;2023-11-19T00:27:39;13.30;99.90
46732;DHT22;32477;51.474;5.696;2023-11-19T00:30:06;13.40;99.90
46732;DHT22;32477;51.474;5.696;2023-11-19T00:32:33;13.40;99.90
46732;DHT22;32477;51.474;5.696;2023-11-19T00:34:59;13.40;99.90
46732;DHT22;32477;51.474;5.696;2023-11-19T00:37:25;13.40;99.90
46732;DHT22;32477;51.474;5.696;2023-11-19T00:39:51;13.40;99.90
46732;DHT22;32477;51.474;5.696;2023-11-19T00:42:17;13.40;99.90
46732;DHT22;32477;51.474;5.696;2023-11-19T00:44:43;13.40;99.90
46732;DHT22;32477;51.474;5.696;2023-11-19T00:47:09;13.40;99.90
46732;DHT22;32477;51.474;5.696;2023-11-19T00:49:35;13.40;99.90
46732;DHT22;32477;51.474;5.696;2023-11-19T00:52:00;13.40;99.90
46732;DHT22;32477;51.474;5.696;2023-11-19T00:54:27;13.40;99.90
46732;DHT22;32477;51.474;5.696;2023-11-19T00:56:53;13.40;99.90
46732;DHT22;32477;51.474;5.696;2023-11-19T00:59:19;13.40;99.90
46732;DHT22;32477;51.474;5.696;2023-11-19T01:01:45;13.40;99.90
46732;DHT22;32477;51.474;5.696;2023-11-19T01:04:11;13.40;99.90
46732;DHT22;32477;51.474;5.696;2023-11-19T01:06:37;13.30;99.90
46732;DHT22;32477;51.474;5.696;2023-11-19T01:09:02;13.30;99.90
46732;DHT22;32477;51.474;5.696;2023-11-19T01:11:28;13.30;99.90
46732;DHT22;32477;51.474;5.696;2023-11-19T01:13:54;13.30;99.90
46732;DHT22;32477;51.474;5.696;2023-11-19T01:16:20;13.30;99.90
46732;DHT22;32477;51.474;5.696;2023-11-19T01:18:49;13.30;99.90
46732;DHT22;32477;51.474;5.696;2023-11-19T01:21:15;13.40;99.90
46732;DHT22;32477;51.474;5.696;2023-11-19T01:23:44;13.30;99.90
46732;DHT22;32477;51.474;5.696;2023-11-19T01:26:11;13.40;99.90
46732;DHT22;32477;51.474;5.696;2023-11-19T01:28:38;13.30;99.90
46732;DHT22;32477;51.474;5.696;2023-11-19T01:31:11;13.30;99.90
46732;DHT22;32477;51.474;5.696;2023-11-19T01:33:38;13.30;99.90
46732;DHT22;32477;51.474;5.696;2023-11-19T01:36:04;13.30;99.90
46732;DHT22;32477;51.474;5.696;2023-11-19T01:38:30;13.30;99.90
46732;DHT22;32477;51.474;5.696;2023-11-19T01:40:58;13.30;99.90
46732;DHT22;32477;51.474;5.696;2023-11-19T01:43:37;13.30;99.90
46732;DHT22;32477;51.474;5.696;2023-11-19T01:46:05;13.20;99.90
46732;DHT22;32477;51.474;5.696;2023-11-19T01:48:32;13.30;99.90
46732;DHT22;32477;51.474;5.696;2023-11-19T01:51:00;13.30;99.90
46732;DHT22;32477;51.474;5.696;2023-11-19T01:53:27;13.30;99.90
46732;DHT22;32477;51.474;5.696;2023-11-19T01:55:53;13.20;99.90
46732;DHT22;32477;51.474;5.696;2023-11-19T01:58:19;13.20;99.90
46732;DHT22;32477;51.474;5.696;2023-11-19T02:00:45;13.20;99.90
46732;DHT22;32477;51.474;5.696;2023-11-19T02:03:11;13.30;99.90
46732;DHT22;32477;51.474;5.696;2023-11-19T02:05:38;13.30;99.90
46732;DHT22;32477;51.474;5.696;2023-11-19T02:08:05;13.20;99.90
46732;DHT22;32477;51.474;5.696;2023-11-19T02:10:30;13.20;99.90
46732;DHT22;32477;51.474;5.696;2023-11-19T02:12:58;13.20;99.90
46732;DHT22;32477;51.474;5.696;2023-11-19T02:15:24;13.20;99.90
46732;DHT22;32477;51.474;5.696;2023-11-19T02:17:50;13.30;99.90
46732;DHT22;32477;51.474;5.696;2023-11-19T02:20:17;13.30;99.90
46732;DHT22;32477;51.474;5.696;2023-11-19T02:22:45;13.20;99.90
46732;DHT22;32477;51.474;5.696;2023-11-19T02:25:19;13.10;99.90
46732;DHT22;32477;51.474;5.696;2023-11-19T02:27:56;13.00;99.90
46732;DHT22;32477;51.474;5.696;2023-11-19T02:30:24;13.00;99.90
46732;DHT22;32477;51.474;5.696;2023-11-19T02:32:55;12.90;99.90
46732;DHT22;32477;51.474;5.696;2023-11-19T02:35:27;12.80;99.90
46732;DHT22;32477;51.474;5.696;2023-11-19T02:37:57;12.60;99.90
46732;DHT22;32477;51.474;5.696;2023-11-19T02:40:23;12.70;99.90
46732;DHT22;32477;51.474;5.696;2023-11-19T02:42:52;12.70;99.90
46732;DHT22;32477;51.474;5.696;2023-11-19T02:45:23;12.60;99.90
46732;DHT22;32477;51.474;5.696;2023-11-19T02:47:49;12.60;99.90
46732;DHT22;32477;51.474;5.696;2023-11-19T02:50:17;12.60;99.90
46732;DHT22;32477;51.474;5.696;2023-11-19T02:52:51;12.60;99.90
46732;DHT22;32477;51.474;5.696;2023-11-19T02:55:17;12.50;99.90
46732;DHT22;32477;51.474;5.696;2023-11-19T02:57:43;12.50;99.90
46732;DHT22;32477;51.474;5.696;2023-11-19T03:00:15;12.40;99.90
46732;DHT22;32477;51.474;5.696;2023-11-19T03:02:42;12.40;99.90
46732;DHT22;32477;51.474;5.696;2023-11-19T03:05:13;12.40;99.90
46732;DHT22;32477;51.474;5.696;2023-11-19T03:07:41;12.40;99.90
46732;DHT22;32477;51.474;5.696;2023-11-19T03:10:08;12.40;99.90
46732;DHT22;32477;51.474;5.696;2023-11-19T03:12:34;12.30;99.90
46732;DHT22;32477;51.474;5.696;2023-11-19T03:15:01;12.30;99.90
46732;DHT22;32477;51.474;5.696;2023-11-19T03:17:27;12.20;99.90
46732;DHT22;32477;51.474;5.696;2023-11-19T03:19:52;12.20;99.90
46732;DHT22;32477;51.474;5.696;2023-11-19T03:22:18;12.30;99.90
46732;DHT22;32477;51.474;5.696;2023-11-19T03:24:44;12.30;99.90
46732;DHT22;32477;51.474;5.696;2023-11-19T03:27:10;12.20;99.90
46732;DHT22;32477;51.474;5.696;2023-11-19T03:29:36;12.20;99.90
46732;DHT22;32477;51.474;5.696;2023-11-19T03:32:05;12.10;99.90
46732;DHT22;32477;51.474;5.696;2023-11-19T03:34:31;12.10;99.90
46732;DHT22;32477;51.474;5.696;2023-11-19T03:36:56;12.10;99.90
46732;DHT22;32477;51.474;5.696;2023-11-19T03:39:22;11.90;99.90
46732;DHT22;32477;51.474;5.696;2023-11-19T03:41:50;12.00;99.90
46732;DHT22;32477;51.474;5.696;2023-11-19T03:44:16;12.10;99.90
46732;DHT22;32477;51.474;5.696;2023-11-19T03:46:43;12.10;99.90
46732;DHT22;32477;51.474;5.696;2023-11-19T03:49:09;12.10;99.90
46732;DHT22;32477;51.474;5.696;2023-11-19T03:51:34;12.20;99.90
46732;DHT22;32477;51.474;5.696;2023-11-19T03:54:00;12.20;99.90
46732;DHT22;32477;51.474;5.696;2023-11-19T03:56:26;12.10;99.90
46732;DHT22;32477;51.474;5.696;2023-11-19T03:58:56;12.10;99.90
46732;DHT22;32477;51.474;5.696;2023-11-19T04:01:22;12.00;99.90
46732;DHT22;32477;51.474;5.696;2023-11-19T04:03:47;12.00;99.90
46732;DHT22;32477;51.474;5.696;2023-11-19T04:06:13;12.00;99.90
46732;DHT22;32477;51.474;5.696;2023-11-19T04:08:39;12.00;99.90
46732;DHT22;32477;51.474;5.696;2023-11-19T04:11:05;12.10;99.90
46732;DHT22;32477;51.474;5.696;2023-11-19T04:13:31;12.10;99.90
46732;DHT22;32477;51.474;5.696;2023-11-19T04:15:57;12.10;99.90
46732;DHT22;32477;51.474;5.696;2023-11-19T04:18:22;12.10;99.90
46732;DHT22;32477;51.474;5.696;2023-11-19T04:20:48;12.00;99.90
46732;DHT22;32477;51.474;5.696;2023-11-19T04:23:15;11.90;99.90
46732;DHT22;32477;51.474;5.696;2023-11-19T04:25:41;11.80;99.90
46732;DHT22;32477;51.474;5.696;2023-11-19T04:28:07;11.80;99.90
46732;DHT22;32477;51.474;5.696;2023-11-19T04:30:33;11.80;99.90
46732;DHT22;32477;51.474;5.696;2023-11-19T04:33:02;11.90;99.90
46732;DHT22;32477;51.474;5.696;2023-11-19T04:35:28;12.00;99.90
46732;DHT22;32477;51.474;5.696;2023-11-19T04:37:54;12.10;99.90
46732;DHT22;32477;51.474;5.696;2023-11-19T04:40:23;12.20;99.90
46732;DHT22;32477;51.474;5.696;2023-11-19T04:42:49;12.30;99.90
46732;DHT22;32477;51.474;5.696;2023-11-19T04:45:15;12.20;99.90
46732;DHT22;32477;51.474;5.696;2023-11-19T04:47:42;12.20;99.90
46732;DHT22;32477;51.474;5.696;2023-11-19T04:50:08;12.20;99.90
46732;DHT22;32477;51.474;5.696;2023-11-19T04:52:40;12.10;99.90
46732;DHT22;32477;51.474;5.696;2023-11-19T04:55:06;12.00;99.90
46732;DHT22;32477;51.474;5.696;2023-11-19T04:57:32;12.10;99.90
46732;DHT22;32477;51.474;5.696;2023-11-19T04:59:58;12.00;99.90
46732;DHT22;32477;51.474;5.696;2023-11-19T05:02:24;12.00;99.90
46732;DHT22;32477;51.474;5.696;2023-11-19T05:04:49;11.90;99.90
46732;DHT22;32477;51.474;5.696;2023-11-19T05:07:15;11.80;99.90
46732;DHT22;32477;51.474;5.696;2023-11-19T05:09:41;11.80;99.90
46732;DHT22;32477;51.474;5.696;2023-11-19T05:12:08;11.80;99.90
46732;DHT22;32477;51.474;5.696;2023-11-19T05:14:37;11.80;99.90
46732;DHT22;32477;51.474;5.696;2023-11-19T05:17:03;11.90;99.90
46732;DHT22;32477;51.474;5.696;2023-11-19T05:19:29;11.90;99.90
46732;DHT22;32477;51.474;5.696;2023-11-19T05:21:55;11.80;99.90
46732;DHT22;32477;51.474;5.696;2023-11-19T05:24:21;11.80;99.90
46732;DHT22;32477;51.474;5.696;2023-11-19T05:26:46;11.70;99.90
46732;DHT22;32477;51.474;5.696;2023-11-19T05:29:12;11.70;99.90
46732;DHT22;32477;51.474;5.696;2023-11-19T05:31:38;11.60;99.90
46732;DHT22;32477;51.474;5.696;2023-11-19T05:34:04;11.70;99.90
46732;DHT22;32477;51.474;5.696;2023-11-19T05:36:29;11.80;99.90
46732;DHT22;32477;51.474;5.696;2023-11-19T05:38:55;11.70;99.90
46732;DHT22;32477;51.474;5.696;2023-11-19T05:41:21;11.70;99.90
46732;DHT22;32477;51.474;5.696;2023-11-19T05:43:47;11.60;99.90
46732;DHT22;32477;51.474;5.696;2023-11-19T05:46:12;11.60;99.90
46732;DHT22;32477;51.474;5.696;2023-11-19T05:48:39;11.70;99.90
46732;DHT22;32477;51.474;5.696;2023-11-19T05:51:05;11.70;99.90
46732;DHT22;32477;51.474;5.696;2023-11-19T05:53:31;11.70;99.90
46732;DHT22;32477;51.474;5.696;2023-11-19T05:55:57;11.60;99.90
46732;DHT22;32477;51.474;5.696;2023-11-19T05:58:24;11.50;99.90
46732;DHT22;32477;51.474;5.696;2023-11-19T06:00:58;11.40;99.90
46732;DHT22;32477;51.474;5.696;2023-11-19T06:03:26;11.40;99.90
46732;DHT22;32477;51.474;5.696;2023-11-19T06:05:52;11.40;99.90
46732;DHT22;32477;51.474;5.696;2023-11-19T06:08:20;11.40;99.90
46732;DHT22;32477;51.474;5.696;2023-11-19T06:10:46;11.50;99.90
46732;DHT22;32477;51.474;5.696;2023-11-19T06:13:15;11.50;99.90
46732;DHT22;32477;51.474;5.696;2023-11-19T06:15:44;11.50;99.90
46732;DHT22;32477;51.474;5.696;2023-11-19T06:18:10;11.50;99.90
46732;DHT22;32477;51.474;5.696;2023-11-19T06:20:40;11.40;99.90
46732;DHT22;32477;51.474;5.696;2023-11-19T06:23:06;11.40;99.90
46732;DHT22;32477;51.474;5.696;2023-11-19T06:25:32;11.50;99.90
46732;DHT22;32477;51.474;5.696;2023-11-19T06:27:58;11.40;99.90
46732;DHT22;32477;51.474;5.696;2023-11-19T06:30:24;11.40;99.90
46732;DHT22;32477;51.474;5.696;2023-11-19T06:32:51;11.30;99.90
46732;DHT22;32477;51.474;5.696;2023-11-19T06:35:17;11.30;99.90
46732;DHT22;32477;51.474;5.696;2023-11-19T06:37:42;11.30;99.90
46732;DHT22;32477;51.474;5.696;2023-11-19T06:40:09;11.20;99.90
46732;DHT22;32477;51.474;5.696;2023-11-19T06:42:35;11.20;99.90
46732;DHT22;32477;51.474;5.696;2023-11-19T06:45:01;11.20;99.90
46732;DHT22;32477;51.474;5.696;2023-11-19T06:47:28;11.10;99.90
46732;DHT22;32477;51.474;5.696;2023-11-19T06:49:54;11.10;99.90
46732;DHT22;32477;51.474;5.696;2023-11-19T06:52:20;11.10;99.90
46732;DHT22;32477;51.474;5.696;2023-11-19T06:54:46;11.10;99.90
46732;DHT22;32477;51.474;5.696;2023-11-19T06:57:12;11.00;99.90
46732;DHT22;32477;51.474;5.696;2023-11-19T06:59:38;11.00;99.90
46732;DHT22;32477;51.474;5.696;2023-11-19T07:02:04;11.00;99.90
46732;DHT22;32477;51.474;5.696;2023-11-19T07:04:30;11.00;99.90
46732;DHT22;32477;51.474;5.696;2023-11-19T07:06:56;10.90;99.90
46732;DHT22;32477;51.474;5.696;2023-11-19T07:09:22;10.90;99.90
46732;DHT22;32477;51.474;5.696;2023-11-19T07:11:49;11.10;99.90
46732;DHT22;32477;51.474;5.696;2023-11-19T07:14:17;11.10;99.90
46732;DHT22;32477;51.474;5.696;2023-11-19T07:16:43;11.10;99.90
46732;DHT22;32477;51.474;5.696;2023-11-19T07:19:09;11.20;99.90
46732;DHT22;32477;51.474;5.696;2023-11-19T07:21:34;11.20;99.90
46732;DHT22;32477;51.474;5.696;2023-11-19T07:24:01;11.10;99.90
46732;DHT22;32477;51.474;5.696;2023-11-19T07:26:27;11.10;99.90
46732;DHT22;32477;51.474;5.696;2023-11-19T07:28:53;11.10;99.90
46732;DHT22;32477;51.474;5.696;2023-11-19T07:31:21;11.10;99.90
46732;DHT22;32477;51.474;5.696;2023-11-19T07:33:47;11.10;99.90
46732;DHT22;32477;51.474;5.696;2023-11-19T07:36:13;11.20;99.90
46732;DHT22;32477;51.474;5.696;2023-11-19T07:38:39;11.20;99.90
46732;DHT22;32477;51.474;5.696;2023-11-19T07:41:05;11.20;99.90
46732;DHT22;32477;51.474;5.696;2023-11-19T07:43:31;11.20;99.90
46732;DHT22;32477;51.474;5.696;2023-11-19T07:45:57;11.30;99.90
46732;DHT22;32477;51.474;5.696;2023-11-19T07:48:25;11.30;99.90
46732;DHT22;32477;51.474;5.696;2023-11-19T07:50:52;11.40;99.90
46732;DHT22;32477;51.474;5.696;2023-11-19T07:53:19;11.40;99.90
46732;DHT22;32477;51.474;5.696;2023-11-19T07:55:45;11.40;99.90
46732;DHT22;32477;51.474;5.696;2023-11-19T07:58:11;11.40;99.90
46732;DHT22;32477;51.474;5.696;2023-11-19T08:00:38;11.40;99.90
46732;DHT22;32477;51.474;5.696;2023-11-19T08:03:04;11.40;99.90
46732;DHT22;32477;51.474;5.696;2023-11-19T08:05:31;11.30;99.90
46732;DHT22;32477;51.474;5.696;2023-11-19T08:07:57;11.40;99.90
46732;DHT22;32477;51.474;5.696;2023-11-19T08:10:24;11.50;99.90
46732;DHT22;32477;51.474;5.696;2023-11-19T08:12:49;11.60;99.90
46732;DHT22;32477;51.474;5.696;2023-11-19T08:15:15;11.60;99.90
46732;DHT22;32477;51.474;5.696;2023-11-19T08:17:41;11.70;99.90
46732;DHT22;32477;51.474;5.696;2023-11-19T08:20:09;11.80;99.90
46732;DHT22;32477;51.474;5.696;2023-11-19T08:22:36;11.80;99.90
46732;DHT22;32477;51.474;5.696;2023-11-19T08:25:04;11.80;99.90
46732;DHT22;32477;51.474;5.696;2023-11-19T08:27:30;11.80;99.90
46732;DHT22;32477;51.474;5.696;2023-11-19T08:29:56;11.90;99.90
46732;DHT22;32477;51.474;5.696;2023-11-19T08:32:26;12.00;99.90
46732;DHT22;32477;51.474;5.696;2023-11-19T08:34:52;12.00;99.90
46732;DHT22;32477;51.474;5.696;2023-11-19T08:37:18;12.00;99.90
46732;DHT22;32477;51.474;5.696;2023-11-19T08:39:46;12.10;99.90
46732;DHT22;32477;51.474;5.696;2023-11-19T08:42:12;12.20;99.90
46732;DHT22;32477;51.474;5.696;2023-11-19T08:44:38;12.30;99.90
46732;DHT22;32477;51.474;5.696;2023-11-19T08:47:04;12.40;99.90
46732;DHT22;32477;51.474;5.696;2023-11-19T08:49:30;12.50;99.90
46732;DHT22;32477;51.474;5.696;2023-11-19T08:51:55;12.50;99.90
46732;DHT22;32477;51.474;5.696;2023-11-19T08:54:21;12.60;99.90
46732;DHT22;32477;51.474;5.696;2023-11-19T08:56:48;12.60;99.90
46732;DHT22;32477;51.474;5.696;2023-11-19T08:59:14;12.70;99.90
46732;DHT22;32477;51.474;5.696;2023-11-19T09:01:40;12.80;99.90
46732;DHT22;32477;51.474;5.696;2023-11-19T09:04:06;12.70;99.90
46732;DHT22;32477;51.474;5.696;2023-11-19T09:06:32;12.70;99.90
46732;DHT22;32477;51.474;5.696;2023-11-19T09:08:58;12.80;99.90
46732;DHT22;32477;51.474;5.696;2023-11-19T09:11:28;12.80;99.90
46732;DHT22;32477;51.474;5.696;2023-11-19T09:13:53;12.90;99.90
46732;DHT22;32477;51.474;5.696;2023-11-19T09:16:19;13.10;99.90
46732;DHT22;32477;51.474;5.696;2023-11-19T09:18:45;13.30;99.90
46732;DHT22;32477;51.474;5.696;2023-11-19T09:21:13;13.30;99.90
46732;DHT22;32477;51.474;5.696;2023-11-19T09:23:39;13.30;99.90
46732;DHT22;32477;51.474;5.696;2023-11-19T09:26:06;13.30;99.90
46732;DHT22;32477;51.474;5.696;2023-11-19T09:28:33;13.20;99.90
46732;DHT22;32477;51.474;5.696;2023-11-19T09:30:59;13.20;99.90
46732;DHT22;32477;51.474;5.696;2023-11-19T09:33:25;13.20;99.90
46732;DHT22;32477;51.474;5.696;2023-11-19T09:35:51;13.30;99.90
46732;DHT22;32477;51.474;5.696;2023-11-19T09:38:17;13.40;99.90
46732;DHT22;32477;51.474;5.696;2023-11-19T09:40:43;13.50;99.90
46732;DHT22;32477;51.474;5.696;2023-11-19T09:43:09;13.50;99.90
46732;DHT22;32477;51.474;5.696;2023-11-19T09:46:09;13.60;99.90
46732;DHT22;32477;51.474;5.696;2023-11-19T09:48:37;13.50;99.90
46732;DHT22;32477;51.474;5.696;2023-11-19T09:51:04;13.70;99.90
46732;DHT22;32477;51.474;5.696;2023-11-19T09:53:31;13.70;99.90
46732;DHT22;32477;51.474;5.696;2023-11-19T09:56:02;13.90;99.90
46732;DHT22;32477;51.474;5.696;2023-11-19T09:58:29;14.40;99.90
46732;DHT22;32477;51.474;5.696;2023-11-19T10:00:55;14.60;99.90
46732;DHT22;32477;51.474;5.696;2023-11-19T10:03:24;14.50;99.90
46732;DHT22;32477;51.474;5.696;2023-11-19T10:05:52;14.70;99.90
46732;DHT22;32477;51.474;5.696;2023-11-19T10:08:19;14.60;99.90
46732;DHT22;32477;51.474;5.696;2023-11-19T10:10:45;14.80;99.90
46732;DHT22;32477;51.474;5.696;2023-11-19T10:13:10;15.10;99.90
46732;DHT22;32477;51.474;5.696;2023-11-19T10:15:37;15.00;99.90
46732;DHT22;32477;51.474;5.696;2023-11-19T10:18:03;15.00;99.90
46732;DHT22;32477;51.474;5.696;2023-11-19T10:20:40;15.20;99.90
46732;DHT22;32477;51.474;5.696;2023-11-19T10:23:06;15.00;99.90
46732;DHT22;32477;51.474;5.696;2023-11-19T10:25:33;15.30;99.90
46732;DHT22;32477;51.474;5.696;2023-11-19T10:28:00;15.60;99.90
46732;DHT22;32477;51.474;5.696;2023-11-19T10:30:30;16.00;99.90
46732;DHT22;32477;51.474;5.696;2023-11-19T10:33:08;16.40;99.90
46732;DHT22;32477;51.474;5.696;2023-11-19T10:35:54;16.00;99.90
46732;DHT22;32477;51.474;5.696;2023-11-19T10:38:22;15.80;99.90
46732;DHT22;32477;51.474;5.696;2023-11-19T10:40:49;16.10;99.90
46732;DHT22;32477;51.474;5.696;2023-11-19T10:43:16;16.00;99.90
46732;DHT22;32477;51.474;5.696;2023-11-19T10:45:42;15.30;99.90
46732;DHT22;32477;51.474;5.696;2023-11-19T10:48:08;14.90;99.90
46732;DHT22;32477;51.474;5.696;2023-11-19T10:50:36;14.90;99.90
46732;DHT22;32477;51.474;5.696;2023-11-19T10:53:06;15.00;99.90
46732;DHT22;32477;51.474;5.696;2023-11-19T10:55:36;15.50;99.90
46732;DHT22;32477;51.474;5.696;2023-11-19T10:58:10;15.90;99.90
46732;DHT22;32477;51.474;5.696;2023-11-19T11:00:48;15.90;99.90
46732;DHT22;32477;51.474;5.696;2023-11-19T11:03:17;16.10;99.90
46732;DHT22;32477;51.474;5.696;2023-11-19T11:05:47;16.60;99.90
46732;DHT22;32477;51.474;5.696;2023-11-19T11:08:14;16.60;99.90
46732;DHT22;32477;51.474;5.696;2023-11-19T11:10:53;16.20;99.90
46732;DHT22;32477;51.474;5.696;2023-11-19T11:13:19;15.40;99.90
46732;DHT22;32477;51.474;5.696;2023-11-19T11:15:45;15.10;99.90
46732;DHT22;32477;51.474;5.696;2023-11-19T11:18:13;14.80;99.90
46732;DHT22;32477;51.474;5.696;2023-11-19T11:20:39;14.70;99.90
46732;DHT22;32477;51.474;5.696;2023-11-19T11:26:21;14.40;99.90
46732;DHT22;32477;51.474;5.696;2023-11-19T11:29:09;14.40;99.90
46732;DHT22;32477;51.474;5.696;2023-11-19T11:31:56;14.30;99.90
46732;DHT22;32477;51.474;5.696;2023-11-19T11:37:24;14.10;99.90
46732;DHT22;32477;51.474;5.696;2023-11-19T11:39:51;13.90;99.90
46732;DHT22;32477;51.474;5.696;2023-11-19T11:45:09;13.40;99.90
46732;DHT22;32477;51.474;5.696;2023-11-19T11:50:13;13.10;99.90
46732;DHT22;32477;51.474;5.696;2023-11-19T11:55:27;13.00;99.90
46732;DHT22;32477;51.474;5.696;2023-11-19T11:57:56;12.90;99.90
46732;DHT22;32477;51.474;5.696;2023-11-19T12:00:30;13.20;99.90
46732;DHT22;32477;51.474;5.696;2023-11-19T12:03:00;13.40;99.90
46732;DHT22;32477;51.474;5.696;2023-11-19T12:05:26;14.20;99.90
46732;DHT22;32477;51.474;5.696;2023-11-19T12:07:56;15.00;99.90
46732;DHT22;32477;51.474;5.696;2023-11-19T12:10:24;15.30;99.90
46732;DHT22;32477;51.474;5.696;2023-11-19T12:12:53;15.70;99.90
46732;DHT22;32477;51.474;5.696;2023-11-19T12:15:19;15.90;99.90
46732;DHT22;32477;51.474;5.696;2023-11-19T12:17:50;16.00;99.90
46732;DHT22;32477;51.474;5.696;2023-11-19T12:20:17;15.90;99.90
46732;DHT22;32477;51.474;5.696;2023-11-19T12:22:47;15.90;99.90
46732;DHT22;32477;51.474;5.696;2023-11-19T12:25:15;16.00;99.90
46732;DHT22;32477;51.474;5.696;2023-11-19T12:27:51;16.00;99.90
46732;DHT22;32477;51.474;5.696;2023-11-19T12:30:24;16.20;99.90
46732;DHT22;32477;51.474;5.696;2023-11-19T12:32:50;16.20;99.90
46732;DHT22;32477;51.474;5.696;2023-11-19T12:35:16;16.10;99.90
46732;DHT22;32477;51.474;5.696;2023-11-19T12:37:52;16.20;99.90
46732;DHT22;32477;51.474;5.696;2023-11-19T12:40:20;16.10;99.90
46732;DHT22;32477;51.474;5.696;2023-11-19T12:42:53;16.20;99.90
46732;DHT22;32477;51.474;5.696;2023-11-19T12:45:19;16.30;99.90
46732;DHT22;32477;51.474;5.696;2023-11-19T12:47:46;16.40;99.90
46732;DHT22;32477;51.474;5.696;2023-11-19T12:50:13;16.50;99.90
46732;DHT22;32477;51.474;5.696;2023-11-19T12:52:39;16.00;99.90
46732;DHT22;32477;51.474;5.696;2023-11-19T12:55:06;15.40;99.90
46732;DHT22;32477;51.474;5.696;2023-11-19T12:57:49;14.80;99.90
46732;DHT22;32477;51.474;5.696;2023-11-19T13:00:25;14.40;99.90
46732;DHT22;32477;51.474;5.696;2023-11-19T13:02:52;14.30;99.90
46732;DHT22;32477;51.474;5.696;2023-11-19T13:05:32;14.00;99.90
46732;DHT22;32477;51.474;5.696;2023-11-19T13:08:05;13.90;99.90
46732;DHT22;32477;51.474;5.696;2023-11-19T13:10:53;13.80;99.90
46732;DHT22;32477;51.474;5.696;2023-11-19T13:13:20;13.70;99.90
46732;DHT22;32477;51.474;5.696;2023-11-19T13:15:46;13.60;99.90
46732;DHT22;32477;51.474;5.696;2023-11-19T13:18:12;13.60;99.90
46732;DHT22;32477;51.474;5.696;2023-11-19T13:20:39;13.50;99.90
46732;DHT22;32477;51.474;5.696;2023-11-19T13:23:06;13.30;99.90
46732;DHT22;32477;51.474;5.696;2023-11-19T13:25:35;13.10;99.90
46732;DHT22;32477;51.474;5.696;2023-11-19T13:28:01;12.80;99.90
46732;DHT22;32477;51.474;5.696;2023-11-19T13:30:27;12.60;99.90
46732;DHT22;32477;51.474;5.696;2023-11-19T13:32:54;12.60;99.90
46732;DHT22;32477;51.474;5.696;2023-11-19T13:35:21;12.80;99.90
46732;DHT22;32477;51.474;5.696;2023-11-19T13:37:47;12.90;99.90
46732;DHT22;32477;51.474;5.696;2023-11-19T13:40:13;13.30;99.90
46732;DHT22;32477;51.474;5.696;2023-11-19T13:42:41;13.70;99.90
46732;DHT22;32477;51.474;5.696;2023-11-19T13:45:16;14.10;99.90
46732;DHT22;32477;51.474;5.696;2023-11-19T13:47:44;14.40;99.90
46732;DHT22;32477;51.474;5.696;2023-11-19T13:50:15;14.50;99.90
46732;DHT22;32477;51.474;5.696;2023-11-19T13:52:43;14.50;99.90
46732;DHT22;32477;51.474;5.696;2023-11-19T13:55:11;14.10;99.90
46732;DHT22;32477;51.474;5.696;2023-11-19T13:57:38;13.80;99.90
46732;DHT22;32477;51.474;5.696;2023-11-19T14:00:06;13.20;99.90
46732;DHT22;32477;51.474;5.696;2023-11-19T14:02:33;12.90;99.90
46732;DHT22;32477;51.474;5.696;2023-11-19T14:04:59;12.80;99.90
46732;DHT22;32477;51.474;5.696;2023-11-19T14:07:25;12.90;99.90
46732;DHT22;32477;51.474;5.696;2023-11-19T14:09:51;13.20;99.90
46732;DHT22;32477;51.474;5.696;2023-11-19T14:12:17;13.10;99.90
46732;DHT22;32477;51.474;5.696;2023-11-19T14:14:43;13.10;99.90
46732;DHT22;32477;51.474;5.696;2023-11-19T14:17:09;12.90;99.90
46732;DHT22;32477;51.474;5.696;2023-11-19T14:19:36;12.80;99.90
46732;DHT22;32477;51.474;5.696;2023-11-19T14:22:02;12.70;99.90
46732;DHT22;32477;51.474;5.696;2023-11-19T14:24:28;12.70;99.90
46732;DHT22;32477;51.474;5.696;2023-11-19T14:26:53;12.70;99.90
46732;DHT22;32477;51.474;5.696;2023-11-19T14:29:19;12.60;99.90
46732;DHT22;32477;51.474;5.696;2023-11-19T14:31:45;12.60;99.90
46732;DHT22;32477;51.474;5.696;2023-11-19T14:34:11;12.60;99.90
46732;DHT22;32477;51.474;5.696;2023-11-19T14:36:37;12.50;99.90
46732;DHT22;32477;51.474;5.696;2023-11-19T14:39:02;12.40;99.90
46732;DHT22;32477;51.474;5.696;2023-11-19T14:41:29;12.30;99.90
46732;DHT22;32477;51.474;5.696;2023-11-19T14:43:54;12.20;99.90
46732;DHT22;32477;51.474;5.696;2023-11-19T14:46:20;12.20;99.90
46732;DHT22;32477;51.474;5.696;2023-11-19T14:48:46;12.10;99.90
46732;DHT22;32477;51.474;5.696;2023-11-19T14:51:12;12.00;99.90
46732;DHT22;32477;51.474;5.696;2023-11-19T14:53:38;12.10;99.90
46732;DHT22;32477;51.474;5.696;2023-11-19T14:56:04;12.10;99.90
46732;DHT22;32477;51.474;5.696;2023-11-19T14:58:32;12.10;99.90
46732;DHT22;32477;51.474;5.696;2023-11-19T15:00:58;12.20;99.90
46732;DHT22;32477;51.474;5.696;2023-11-19T15:03:23;12.30;99.90
46732;DHT22;32477;51.474;5.696;2023-11-19T15:05:49;12.30;99.90
46732;DHT22;32477;51.474;5.696;2023-11-19T15:08:16;12.30;99.90
46732;DHT22;32477;51.474;5.696;2023-11-19T15:10:42;12.10;99.90
46732;DHT22;32477;51.474;5.696;2023-11-19T15:13:08;12.00;99.90
46732;DHT22;32477;51.474;5.696;2023-11-19T15:15:34;11.90;99.90
46732;DHT22;32477;51.474;5.696;2023-11-19T15:18:00;11.80;99.90
46732;DHT22;32477;51.474;5.696;2023-11-19T15:20:26;11.70;99.90
46732;DHT22;32477;51.474;5.696;2023-11-19T15:22:55;11.70;99.90
46732;DHT22;32477;51.474;5.696;2023-11-19T15:25:24;11.60;99.90
46732;DHT22;32477;51.474;5.696;2023-11-19T15:27:50;11.60;99.90
46732;DHT22;32477;51.474;5.696;2023-11-19T15:30:16;11.50;99.90
46732;DHT22;32477;51.474;5.696;2023-11-19T15:32:42;11.50;99.90
46732;DHT22;32477;51.474;5.696;2023-11-19T15:35:09;11.50;99.90
46732;DHT22;32477;51.474;5.696;2023-11-19T15:37:36;11.50;99.90
46732;DHT22;32477;51.474;5.696;2023-11-19T15:40:03;11.40;99.90
46732;DHT22;32477;51.474;5.696;2023-11-19T15:42:31;11.40;99.90
46732;DHT22;32477;51.474;5.696;2023-11-19T15:44:57;11.40;99.90